sensor_id;sensor_type;location;lat;lon;timestamp;P1;durP1;ratioP1;P2;durP2;ratioP2
59571;SDS011;59406;45.602;11.904;2022-09-14T00:00:40;9.52;;;7.68;;
59571;SDS011;59406;45.602;11.904;2022-09-14T00:03:06;10.15;;;6.85;;
59571;SDS011;59406;45.602;11.904;2022-09-14T00:05:35;11.33;;;8.27;;
59571;SDS011;59406;45.602;11.904;2022-09-14T00:08:02;11.00;;;7.57;;
59571;SDS011;59406;45.602;11.904;2022-09-14T00:10:28;13.70;;;8.82;;
59571;SDS011;59406;45.602;11.904;2022-09-14T00:12:55;11.90;;;8.40;;
59571;SDS011;59406;45.602;11.904;2022-09-14T00:15:21;7.83;;;4.47;;
59571;SDS011;59406;45.602;11.904;2022-09-14T00:17:46;15.75;;;10.95;;
59571;SDS011;59406;45.602;11.904;2022-09-14T00:20:12;16.70;;;11.27;;
59571;SDS011;59406;45.602;11.904;2022-09-14T00:22:38;14.15;;;10.27;;
59571;SDS011;59406;45.602;11.904;2022-09-14T00:25:04;16.30;;;12.20;;
59571;SDS011;59406;45.602;11.904;2022-09-14T00:27:31;13.70;;;9.57;;
59571;SDS011;59406;45.602;11.904;2022-09-14T00:29:57;18.05;;;13.60;;
59571;SDS011;59406;45.602;11.904;2022-09-14T00:32:23;13.32;;;8.77;;
59571;SDS011;59406;45.602;11.904;2022-09-14T00:34:49;14.43;;;10.13;;
59571;SDS011;59406;45.602;11.904;2022-09-14T00:37:15;14.10;;;9.00;;
59571;SDS011;59406;45.602;11.904;2022-09-14T00:39:41;14.15;;;10.70;;
59571;SDS011;59406;45.602;11.904;2022-09-14T00:42:09;16.40;;;9.90;;
59571;SDS011;59406;45.602;11.904;2022-09-14T00:47:07;13.43;;;8.23;;
59571;SDS011;59406;45.602;11.904;2022-09-14T00:49:39;11.68;;;8.77;;
59571;SDS011;59406;45.602;11.904;2022-09-14T00:52:27;14.65;;;10.05;;
59571;SDS011;59406;45.602;11.904;2022-09-14T00:55:00;11.60;;;6.88;;
59571;SDS011;59406;45.602;11.904;2022-09-14T00:57:34;11.23;;;6.37;;
59571;SDS011;59406;45.602;11.904;2022-09-14T01:00:03;10.23;;;5.95;;
59571;SDS011;59406;45.602;11.904;2022-09-14T01:02:30;9.25;;;5.90;;
59571;SDS011;59406;45.602;11.904;2022-09-14T01:04:59;11.90;;;8.25;;
59571;SDS011;59406;45.602;11.904;2022-09-14T01:13:15;15.13;;;8.32;;
59571;SDS011;59406;45.602;11.904;2022-09-14T01:18:23;14.40;;;9.85;;
59571;SDS011;59406;45.602;11.904;2022-09-14T01:21:04;12.70;;;8.30;;
59571;SDS011;59406;45.602;11.904;2022-09-14T01:29:14;12.82;;;7.65;;
59571;SDS011;59406;45.602;11.904;2022-09-14T01:34:46;12.38;;;8.80;;
59571;SDS011;59406;45.602;11.904;2022-09-14T01:37:50;13.03;;;7.90;;
59571;SDS011;59406;45.602;11.904;2022-09-14T01:40:28;11.95;;;7.10;;
59571;SDS011;59406;45.602;11.904;2022-09-14T01:42:57;10.15;;;7.60;;
59571;SDS011;59406;45.602;11.904;2022-09-14T01:45:46;13.70;;;8.40;;
59571;SDS011;59406;45.602;11.904;2022-09-14T01:48:17;12.25;;;8.10;;
59571;SDS011;59406;45.602;11.904;2022-09-14T01:50:47;12.17;;;8.23;;
59571;SDS011;59406;45.602;11.904;2022-09-14T01:53:27;11.27;;;7.45;;
59571;SDS011;59406;45.602;11.904;2022-09-14T02:01:24;14.10;;;8.93;;
59571;SDS011;59406;45.602;11.904;2022-09-14T02:04:00;10.73;;;7.50;;
59571;SDS011;59406;45.602;11.904;2022-09-14T02:08:59;15.93;;;11.65;;
59571;SDS011;59406;45.602;11.904;2022-09-14T02:11:27;15.70;;;11.82;;
59571;SDS011;59406;45.602;11.904;2022-09-14T02:13:53;13.73;;;8.20;;
59571;SDS011;59406;45.602;11.904;2022-09-14T02:16:20;15.03;;;11.23;;
59571;SDS011;59406;45.602;11.904;2022-09-14T02:18:47;11.98;;;8.93;;
59571;SDS011;59406;45.602;11.904;2022-09-14T02:21:21;19.70;;;14.27;;
59571;SDS011;59406;45.602;11.904;2022-09-14T02:23:50;15.10;;;10.05;;
59571;SDS011;59406;45.602;11.904;2022-09-14T02:26:18;11.35;;;8.40;;
59571;SDS011;59406;45.602;11.904;2022-09-14T02:28:46;14.63;;;10.70;;
59571;SDS011;59406;45.602;11.904;2022-09-14T02:31:25;14.98;;;12.65;;
59571;SDS011;59406;45.602;11.904;2022-09-14T02:48:11;12.05;;;8.98;;
59571;SDS011;59406;45.602;11.904;2022-09-14T02:56:01;11.30;;;7.40;;
59571;SDS011;59406;45.602;11.904;2022-09-14T02:58:36;11.77;;;8.68;;
59571;SDS011;59406;45.602;11.904;2022-09-14T03:01:07;13.05;;;8.38;;
59571;SDS011;59406;45.602;11.904;2022-09-14T03:03:36;12.35;;;9.38;;
59571;SDS011;59406;45.602;11.904;2022-09-14T03:06:02;11.40;;;8.53;;
59571;SDS011;59406;45.602;11.904;2022-09-14T03:08:28;14.38;;;10.40;;
59571;SDS011;59406;45.602;11.904;2022-09-14T03:10:55;12.25;;;9.00;;
59571;SDS011;59406;45.602;11.904;2022-09-14T03:13:22;14.13;;;9.95;;
59571;SDS011;59406;45.602;11.904;2022-09-14T03:15:48;14.63;;;9.85;;
59571;SDS011;59406;45.602;11.904;2022-09-14T03:18:15;12.10;;;8.67;;
59571;SDS011;59406;45.602;11.904;2022-09-14T03:20:42;12.85;;;8.82;;
59571;SDS011;59406;45.602;11.904;2022-09-14T03:23:08;13.45;;;8.77;;
59571;SDS011;59406;45.602;11.904;2022-09-14T03:25:39;13.55;;;8.73;;
59571;SDS011;59406;45.602;11.904;2022-09-14T03:28:08;13.65;;;9.45;;
59571;SDS011;59406;45.602;11.904;2022-09-14T03:30:35;12.40;;;9.63;;
59571;SDS011;59406;45.602;11.904;2022-09-14T03:33:01;13.23;;;9.10;;
59571;SDS011;59406;45.602;11.904;2022-09-14T03:35:28;15.18;;;11.63;;
59571;SDS011;59406;45.602;11.904;2022-09-14T03:37:56;12.95;;;10.10;;
59571;SDS011;59406;45.602;11.904;2022-09-14T03:40:23;11.68;;;8.95;;
59571;SDS011;59406;45.602;11.904;2022-09-14T03:42:50;14.87;;;10.50;;
59571;SDS011;59406;45.602;11.904;2022-09-14T03:45:16;12.95;;;10.45;;
59571;SDS011;59406;45.602;11.904;2022-09-14T03:47:44;12.20;;;8.70;;
59571;SDS011;59406;45.602;11.904;2022-09-14T03:50:12;14.40;;;10.40;;
59571;SDS011;59406;45.602;11.904;2022-09-14T03:52:39;10.25;;;7.60;;
59571;SDS011;59406;45.602;11.904;2022-09-14T03:55:06;15.73;;;10.73;;
59571;SDS011;59406;45.602;11.904;2022-09-14T03:57:33;13.82;;;9.77;;
59571;SDS011;59406;45.602;11.904;2022-09-14T04:00:00;13.18;;;10.45;;
59571;SDS011;59406;45.602;11.904;2022-09-14T04:02:27;12.85;;;10.05;;
59571;SDS011;59406;45.602;11.904;2022-09-14T04:04:53;12.88;;;9.38;;
59571;SDS011;59406;45.602;11.904;2022-09-14T04:07:19;12.87;;;10.73;;
59571;SDS011;59406;45.602;11.904;2022-09-14T04:09:45;18.42;;;12.35;;
59571;SDS011;59406;45.602;11.904;2022-09-14T04:12:11;12.20;;;8.32;;
59571;SDS011;59406;45.602;11.904;2022-09-14T04:14:37;13.17;;;9.07;;
59571;SDS011;59406;45.602;11.904;2022-09-14T04:17:03;11.48;;;9.27;;
59571;SDS011;59406;45.602;11.904;2022-09-14T04:19:29;9.18;;;5.57;;
59571;SDS011;59406;45.602;11.904;2022-09-14T04:21:58;9.77;;;7.25;;
59571;SDS011;59406;45.602;11.904;2022-09-14T04:24:24;11.75;;;9.02;;
59571;SDS011;59406;45.602;11.904;2022-09-14T04:26:50;11.23;;;8.67;;
59571;SDS011;59406;45.602;11.904;2022-09-14T04:29:17;13.52;;;10.98;;
59571;SDS011;59406;45.602;11.904;2022-09-14T04:31:43;11.98;;;9.07;;
59571;SDS011;59406;45.602;11.904;2022-09-14T04:34:10;15.00;;;11.05;;
59571;SDS011;59406;45.602;11.904;2022-09-14T04:36:40;14.25;;;11.88;;
59571;SDS011;59406;45.602;11.904;2022-09-14T04:39:08;12.20;;;9.27;;
59571;SDS011;59406;45.602;11.904;2022-09-14T04:41:36;15.55;;;9.85;;
59571;SDS011;59406;45.602;11.904;2022-09-14T04:44:02;11.57;;;9.57;;
59571;SDS011;59406;45.602;11.904;2022-09-14T04:46:29;15.00;;;10.32;;
59571;SDS011;59406;45.602;11.904;2022-09-14T04:48:58;14.97;;;10.27;;
59571;SDS011;59406;45.602;11.904;2022-09-14T04:51:25;10.57;;;8.10;;
59571;SDS011;59406;45.602;11.904;2022-09-14T04:53:53;11.50;;;8.45;;
59571;SDS011;59406;45.602;11.904;2022-09-14T04:56:21;13.07;;;8.77;;
59571;SDS011;59406;45.602;11.904;2022-09-14T04:58:50;16.10;;;12.10;;
59571;SDS011;59406;45.602;11.904;2022-09-14T05:01:19;13.37;;;10.87;;
59571;SDS011;59406;45.602;11.904;2022-09-14T05:03:51;10.70;;;8.55;;
59571;SDS011;59406;45.602;11.904;2022-09-14T05:06:19;13.35;;;9.95;;
59571;SDS011;59406;45.602;11.904;2022-09-14T05:08:50;12.32;;;8.73;;
59571;SDS011;59406;45.602;11.904;2022-09-14T05:11:18;12.32;;;9.57;;
59571;SDS011;59406;45.602;11.904;2022-09-14T05:13:47;15.37;;;9.77;;
59571;SDS011;59406;45.602;11.904;2022-09-14T05:16:15;11.10;;;8.70;;
59571;SDS011;59406;45.602;11.904;2022-09-14T05:18:43;13.65;;;9.32;;
59571;SDS011;59406;45.602;11.904;2022-09-14T05:21:10;10.48;;;7.68;;
59571;SDS011;59406;45.602;11.904;2022-09-14T05:23:38;13.60;;;10.30;;
59571;SDS011;59406;45.602;11.904;2022-09-14T05:26:04;11.63;;;9.53;;
59571;SDS011;59406;45.602;11.904;2022-09-14T05:28:32;10.98;;;9.25;;
59571;SDS011;59406;45.602;11.904;2022-09-14T05:31:02;12.35;;;9.50;;
59571;SDS011;59406;45.602;11.904;2022-09-14T05:33:33;12.65;;;9.77;;
59571;SDS011;59406;45.602;11.904;2022-09-14T05:36:03;11.38;;;9.23;;
59571;SDS011;59406;45.602;11.904;2022-09-14T05:38:31;13.27;;;10.43;;
59571;SDS011;59406;45.602;11.904;2022-09-14T05:40:59;13.50;;;8.82;;
59571;SDS011;59406;45.602;11.904;2022-09-14T05:43:26;11.10;;;7.90;;
59571;SDS011;59406;45.602;11.904;2022-09-14T05:45:53;13.05;;;8.77;;
59571;SDS011;59406;45.602;11.904;2022-09-14T05:48:19;12.95;;;9.07;;
59571;SDS011;59406;45.602;11.904;2022-09-14T05:50:45;9.63;;;7.27;;
59571;SDS011;59406;45.602;11.904;2022-09-14T05:53:11;12.45;;;9.80;;
59571;SDS011;59406;45.602;11.904;2022-09-14T05:55:38;12.73;;;9.05;;
59571;SDS011;59406;45.602;11.904;2022-09-14T05:58:04;10.48;;;8.30;;
59571;SDS011;59406;45.602;11.904;2022-09-14T06:00:30;11.83;;;9.10;;
59571;SDS011;59406;45.602;11.904;2022-09-14T06:02:56;14.63;;;10.05;;
59571;SDS011;59406;45.602;11.904;2022-09-14T06:05:22;15.32;;;10.93;;
59571;SDS011;59406;45.602;11.904;2022-09-14T06:07:50;16.98;;;13.93;;
59571;SDS011;59406;45.602;11.904;2022-09-14T06:10:18;18.60;;;13.88;;
59571;SDS011;59406;45.602;11.904;2022-09-14T06:12:45;17.80;;;12.00;;
59571;SDS011;59406;45.602;11.904;2022-09-14T06:15:12;11.85;;;8.77;;
59571;SDS011;59406;45.602;11.904;2022-09-14T06:17:38;12.88;;;8.95;;
59571;SDS011;59406;45.602;11.904;2022-09-14T06:20:04;13.35;;;9.13;;
59571;SDS011;59406;45.602;11.904;2022-09-14T06:22:33;14.30;;;9.50;;
59571;SDS011;59406;45.602;11.904;2022-09-14T06:24:59;14.05;;;9.35;;
59571;SDS011;59406;45.602;11.904;2022-09-14T06:27:25;17.23;;;10.80;;
59571;SDS011;59406;45.602;11.904;2022-09-14T06:29:51;13.70;;;9.13;;
59571;SDS011;59406;45.602;11.904;2022-09-14T06:32:19;15.68;;;10.90;;
59571;SDS011;59406;45.602;11.904;2022-09-14T06:34:47;12.70;;;10.80;;
59571;SDS011;59406;45.602;11.904;2022-09-14T06:37:13;16.02;;;11.57;;
59571;SDS011;59406;45.602;11.904;2022-09-14T06:39:40;13.68;;;10.85;;
59571;SDS011;59406;45.602;11.904;2022-09-14T06:42:06;20.00;;;12.88;;
59571;SDS011;59406;45.602;11.904;2022-09-14T06:44:32;16.00;;;11.73;;
59571;SDS011;59406;45.602;11.904;2022-09-14T06:46:58;16.80;;;11.33;;
59571;SDS011;59406;45.602;11.904;2022-09-14T06:49:24;14.90;;;11.25;;
59571;SDS011;59406;45.602;11.904;2022-09-14T06:51:50;16.83;;;12.25;;
59571;SDS011;59406;45.602;11.904;2022-09-14T06:54:18;16.08;;;11.07;;
59571;SDS011;59406;45.602;11.904;2022-09-14T06:56:45;17.20;;;11.77;;
59571;SDS011;59406;45.602;11.904;2022-09-14T06:59:12;16.20;;;11.93;;
59571;SDS011;59406;45.602;11.904;2022-09-14T07:01:40;14.10;;;10.70;;
59571;SDS011;59406;45.602;11.904;2022-09-14T07:04:06;15.70;;;11.43;;
59571;SDS011;59406;45.602;11.904;2022-09-14T07:06:43;16.08;;;11.63;;
59571;SDS011;59406;45.602;11.904;2022-09-14T07:09:11;16.67;;;11.63;;
59571;SDS011;59406;45.602;11.904;2022-09-14T07:11:38;13.80;;;10.63;;
59571;SDS011;59406;45.602;11.904;2022-09-14T07:14:05;10.25;;;8.23;;
59571;SDS011;59406;45.602;11.904;2022-09-14T07:16:32;11.18;;;8.15;;
59571;SDS011;59406;45.602;11.904;2022-09-14T07:19:00;13.15;;;10.50;;
59571;SDS011;59406;45.602;11.904;2022-09-14T07:21:29;13.38;;;10.10;;
59571;SDS011;59406;45.602;11.904;2022-09-14T07:23:57;14.90;;;9.47;;
59571;SDS011;59406;45.602;11.904;2022-09-14T07:26:24;9.30;;;6.47;;
59571;SDS011;59406;45.602;11.904;2022-09-14T07:28:53;11.98;;;8.85;;
59571;SDS011;59406;45.602;11.904;2022-09-14T07:31:22;11.73;;;7.70;;
59571;SDS011;59406;45.602;11.904;2022-09-14T07:33:52;11.00;;;7.65;;
59571;SDS011;59406;45.602;11.904;2022-09-14T07:36:21;9.03;;;6.90;;
59571;SDS011;59406;45.602;11.904;2022-09-14T07:38:48;10.85;;;8.10;;
59571;SDS011;59406;45.602;11.904;2022-09-14T07:41:14;8.13;;;5.97;;
59571;SDS011;59406;45.602;11.904;2022-09-14T07:43:40;9.13;;;6.30;;
59571;SDS011;59406;45.602;11.904;2022-09-14T07:46:06;9.77;;;6.53;;
59571;SDS011;59406;45.602;11.904;2022-09-14T07:48:33;7.95;;;5.68;;
59571;SDS011;59406;45.602;11.904;2022-09-14T07:53:27;8.90;;;5.07;;
59571;SDS011;59406;45.602;11.904;2022-09-14T07:55:58;9.52;;;5.75;;
59571;SDS011;59406;45.602;11.904;2022-09-14T07:58:26;11.47;;;6.17;;
59571;SDS011;59406;45.602;11.904;2022-09-14T08:00:59;8.20;;;5.22;;
59571;SDS011;59406;45.602;11.904;2022-09-14T08:03:27;10.20;;;4.95;;
59571;SDS011;59406;45.602;11.904;2022-09-14T08:08:31;9.35;;;4.07;;
59571;SDS011;59406;45.602;11.904;2022-09-14T08:11:04;6.60;;;3.70;;
59571;SDS011;59406;45.602;11.904;2022-09-14T08:13:32;8.18;;;4.03;;
59571;SDS011;59406;45.602;11.904;2022-09-14T08:15:59;8.85;;;4.13;;
59571;SDS011;59406;45.602;11.904;2022-09-14T08:18:27;8.77;;;4.80;;
59571;SDS011;59406;45.602;11.904;2022-09-14T08:20:54;8.90;;;4.57;;
59571;SDS011;59406;45.602;11.904;2022-09-14T08:23:21;7.03;;;3.50;;
59571;SDS011;59406;45.602;11.904;2022-09-14T08:25:47;7.75;;;3.83;;
59571;SDS011;59406;45.602;11.904;2022-09-14T08:28:13;9.73;;;6.25;;
59571;SDS011;59406;45.602;11.904;2022-09-14T08:30:39;8.75;;;6.15;;
59571;SDS011;59406;45.602;11.904;2022-09-14T08:33:05;8.07;;;5.20;;
59571;SDS011;59406;45.602;11.904;2022-09-14T08:35:31;9.77;;;5.50;;
59571;SDS011;59406;45.602;11.904;2022-09-14T08:37:57;9.63;;;5.32;;
59571;SDS011;59406;45.602;11.904;2022-09-14T08:40:23;8.40;;;4.93;;
59571;SDS011;59406;45.602;11.904;2022-09-14T08:42:49;7.20;;;3.97;;
59571;SDS011;59406;45.602;11.904;2022-09-14T08:45:17;7.05;;;3.95;;
59571;SDS011;59406;45.602;11.904;2022-09-14T08:47:43;8.63;;;4.97;;
59571;SDS011;59406;45.602;11.904;2022-09-14T08:52:50;7.57;;;4.47;;
59571;SDS011;59406;45.602;11.904;2022-09-14T09:00:41;7.18;;;1.98;;
59571;SDS011;59406;45.602;11.904;2022-09-14T09:11:09;6.68;;;2.80;;
59571;SDS011;59406;45.602;11.904;2022-09-14T09:13:44;6.18;;;3.05;;
59571;SDS011;59406;45.602;11.904;2022-09-14T09:16:14;6.35;;;2.70;;
59571;SDS011;59406;45.602;11.904;2022-09-14T09:18:48;7.13;;;3.83;;
59571;SDS011;59406;45.602;11.904;2022-09-14T09:21:24;8.82;;;4.50;;
59571;SDS011;59406;45.602;11.904;2022-09-14T09:26:43;6.28;;;3.15;;
59571;SDS011;59406;45.602;11.904;2022-09-14T09:29:09;6.38;;;2.83;;
59571;SDS011;59406;45.602;11.904;2022-09-14T09:31:37;7.60;;;3.00;;
59571;SDS011;59406;45.602;11.904;2022-09-14T09:34:06;10.45;;;3.40;;
59571;SDS011;59406;45.602;11.904;2022-09-14T09:36:38;5.75;;;3.30;;
59571;SDS011;59406;45.602;11.904;2022-09-14T09:39:07;8.50;;;4.70;;
59571;SDS011;59406;45.602;11.904;2022-09-14T09:41:42;7.35;;;3.70;;
59571;SDS011;59406;45.602;11.904;2022-09-14T09:44:12;6.07;;;3.33;;
59571;SDS011;59406;45.602;11.904;2022-09-14T09:46:44;6.43;;;3.00;;
59571;SDS011;59406;45.602;11.904;2022-09-14T09:51:47;6.15;;;2.58;;
59571;SDS011;59406;45.602;11.904;2022-09-14T09:56:51;10.20;;;3.70;;
59571;SDS011;59406;45.602;11.904;2022-09-14T09:59:48;6.65;;;2.97;;
59571;SDS011;59406;45.602;11.904;2022-09-14T10:04:59;7.47;;;3.17;;
59571;SDS011;59406;45.602;11.904;2022-09-14T10:07:26;6.85;;;2.58;;
59571;SDS011;59406;45.602;11.904;2022-09-14T10:12:50;6.38;;;3.92;;
59571;SDS011;59406;45.602;11.904;2022-09-14T10:15:28;11.38;;;4.30;;
59571;SDS011;59406;45.602;11.904;2022-09-14T10:20:31;8.88;;;4.50;;
59571;SDS011;59406;45.602;11.904;2022-09-14T10:23:14;6.53;;;2.97;;
59571;SDS011;59406;45.602;11.904;2022-09-14T10:25:43;15.80;;;3.70;;
59571;SDS011;59406;45.602;11.904;2022-09-14T10:28:20;7.75;;;3.80;;
59571;SDS011;59406;45.602;11.904;2022-09-14T10:30:51;7.15;;;3.80;;
59571;SDS011;59406;45.602;11.904;2022-09-14T10:33:24;6.75;;;4.50;;
59571;SDS011;59406;45.602;11.904;2022-09-14T10:38:48;8.15;;;4.25;;
59571;SDS011;59406;45.602;11.904;2022-09-14T10:50:05;4.90;;;2.57;;
59571;SDS011;59406;45.602;11.904;2022-09-14T11:15:29;7.70;;;3.83;;
59571;SDS011;59406;45.602;11.904;2022-09-14T11:23:35;7.40;;;3.42;;
59571;SDS011;59406;45.602;11.904;2022-09-14T11:26:15;7.20;;;4.15;;
59571;SDS011;59406;45.602;11.904;2022-09-14T11:29:02;8.67;;;3.77;;
59571;SDS011;59406;45.602;11.904;2022-09-14T11:34:36;8.68;;;4.80;;
59571;SDS011;59406;45.602;11.904;2022-09-14T11:37:15;5.97;;;4.05;;
59571;SDS011;59406;45.602;11.904;2022-09-14T11:39:46;5.65;;;3.83;;
59571;SDS011;59406;45.602;11.904;2022-09-14T11:42:21;6.37;;;3.30;;
59571;SDS011;59406;45.602;11.904;2022-09-14T11:45:12;6.68;;;3.58;;
59571;SDS011;59406;45.602;11.904;2022-09-14T11:47:44;6.82;;;3.80;;
59571;SDS011;59406;45.602;11.904;2022-09-14T11:50:18;6.38;;;3.85;;
59571;SDS011;59406;45.602;11.904;2022-09-14T11:53:01;8.80;;;5.30;;
59571;SDS011;59406;45.602;11.904;2022-09-14T11:55:36;10.50;;;4.60;;
59571;SDS011;59406;45.602;11.904;2022-09-14T11:58:13;8.30;;;4.97;;
59571;SDS011;59406;45.602;11.904;2022-09-14T12:03:20;7.30;;;4.63;;
59571;SDS011;59406;45.602;11.904;2022-09-14T12:05:47;7.60;;;3.83;;
59571;SDS011;59406;45.602;11.904;2022-09-14T12:08:25;6.00;;;4.83;;
59571;SDS011;59406;45.602;11.904;2022-09-14T12:11:01;10.00;;;4.38;;
59571;SDS011;59406;45.602;11.904;2022-09-14T12:13:32;6.20;;;3.40;;
59571;SDS011;59406;45.602;11.904;2022-09-14T12:16:01;7.35;;;5.15;;
59571;SDS011;59406;45.602;11.904;2022-09-14T12:18:37;6.88;;;3.90;;
59571;SDS011;59406;45.602;11.904;2022-09-14T12:21:21;6.20;;;4.60;;
59571;SDS011;59406;45.602;11.904;2022-09-14T12:23:50;7.40;;;4.30;;
59571;SDS011;59406;45.602;11.904;2022-09-14T12:26:31;7.75;;;4.65;;
59571;SDS011;59406;45.602;11.904;2022-09-14T12:29:03;6.65;;;3.67;;
59571;SDS011;59406;45.602;11.904;2022-09-14T12:34:21;7.57;;;4.33;;
59571;SDS011;59406;45.602;11.904;2022-09-14T12:44:37;6.82;;;3.50;;
59571;SDS011;59406;45.602;11.904;2022-09-14T12:49:56;7.25;;;3.40;;
59571;SDS011;59406;45.602;11.904;2022-09-14T12:55:06;5.75;;;3.05;;
59571;SDS011;59406;45.602;11.904;2022-09-14T13:00:30;5.37;;;2.80;;
59571;SDS011;59406;45.602;11.904;2022-09-14T13:03:23;6.47;;;3.28;;
59571;SDS011;59406;45.602;11.904;2022-09-14T13:05:52;6.82;;;2.90;;
59571;SDS011;59406;45.602;11.904;2022-09-14T13:08:21;5.47;;;2.53;;
59571;SDS011;59406;45.602;11.904;2022-09-14T13:10:49;14.38;;;3.15;;
59571;SDS011;59406;45.602;11.904;2022-09-14T13:13:17;6.47;;;3.07;;
59571;SDS011;59406;45.602;11.904;2022-09-14T13:16:11;9.02;;;3.03;;
59571;SDS011;59406;45.602;11.904;2022-09-14T13:18:36;6.60;;;2.55;;
59571;SDS011;59406;45.602;11.904;2022-09-14T13:21:11;6.68;;;2.88;;
59571;SDS011;59406;45.602;11.904;2022-09-14T13:23:46;12.05;;;3.13;;
59571;SDS011;59406;45.602;11.904;2022-09-14T13:28:44;7.90;;;2.40;;
59571;SDS011;59406;45.602;11.904;2022-09-14T13:31:13;10.65;;;2.50;;
59571;SDS011;59406;45.602;11.904;2022-09-14T13:33:46;6.60;;;1.98;;
59571;SDS011;59406;45.602;11.904;2022-09-14T13:36:16;5.55;;;2.10;;
59571;SDS011;59406;45.602;11.904;2022-09-14T13:38:45;6.83;;;2.30;;
59571;SDS011;59406;45.602;11.904;2022-09-14T13:41:15;7.97;;;2.75;;
59571;SDS011;59406;45.602;11.904;2022-09-14T13:43:43;7.70;;;2.92;;
59571;SDS011;59406;45.602;11.904;2022-09-14T13:46:14;8.55;;;2.95;;
59571;SDS011;59406;45.602;11.904;2022-09-14T13:48:41;6.00;;;2.47;;
59571;SDS011;59406;45.602;11.904;2022-09-14T13:51:09;6.50;;;2.70;;
59571;SDS011;59406;45.602;11.904;2022-09-14T13:56:28;8.18;;;2.85;;
59571;SDS011;59406;45.602;11.904;2022-09-14T14:01:36;6.28;;;2.90;;
59571;SDS011;59406;45.602;11.904;2022-09-14T14:04:05;7.77;;;3.50;;
59571;SDS011;59406;45.602;11.904;2022-09-14T14:09:47;9.23;;;2.88;;
59571;SDS011;59406;45.602;11.904;2022-09-14T14:12:30;6.80;;;2.78;;
59571;SDS011;59406;45.602;11.904;2022-09-14T14:15:02;10.23;;;3.25;;
59571;SDS011;59406;45.602;11.904;2022-09-14T14:17:37;5.50;;;2.47;;
59571;SDS011;59406;45.602;11.904;2022-09-14T14:22:58;4.65;;;2.10;;
59571;SDS011;59406;45.602;11.904;2022-09-14T14:25:32;5.70;;;2.58;;
59571;SDS011;59406;45.602;11.904;2022-09-14T14:28:04;6.78;;;2.67;;
59571;SDS011;59406;45.602;11.904;2022-09-14T14:30:39;7.90;;;3.57;;
59571;SDS011;59406;45.602;11.904;2022-09-14T14:33:13;8.55;;;2.58;;
59571;SDS011;59406;45.602;11.904;2022-09-14T14:35:43;7.28;;;2.40;;
59571;SDS011;59406;45.602;11.904;2022-09-14T14:38:11;7.35;;;2.80;;
59571;SDS011;59406;45.602;11.904;2022-09-14T14:40:37;6.53;;;2.20;;
59571;SDS011;59406;45.602;11.904;2022-09-14T14:43:05;6.83;;;2.20;;
59571;SDS011;59406;45.602;11.904;2022-09-14T14:45:32;8.23;;;2.75;;
59571;SDS011;59406;45.602;11.904;2022-09-14T14:48:00;7.70;;;2.00;;
59571;SDS011;59406;45.602;11.904;2022-09-14T14:50:27;7.35;;;2.20;;
59571;SDS011;59406;45.602;11.904;2022-09-14T14:52:55;6.78;;;2.22;;
59571;SDS011;59406;45.602;11.904;2022-09-14T14:55:22;5.20;;;2.50;;
59571;SDS011;59406;45.602;11.904;2022-09-14T14:57:51;9.98;;;2.80;;
59571;SDS011;59406;45.602;11.904;2022-09-14T15:00:19;7.22;;;2.63;;
59571;SDS011;59406;45.602;11.904;2022-09-14T15:02:47;5.57;;;2.47;;
59571;SDS011;59406;45.602;11.904;2022-09-14T15:05:14;6.05;;;2.38;;
59571;SDS011;59406;45.602;11.904;2022-09-14T15:07:41;9.83;;;2.97;;
59571;SDS011;59406;45.602;11.904;2022-09-14T15:10:07;6.97;;;2.47;;
59571;SDS011;59406;45.602;11.904;2022-09-14T15:12:37;8.15;;;2.90;;
59571;SDS011;59406;45.602;11.904;2022-09-14T15:15:04;6.82;;;2.60;;
59571;SDS011;59406;45.602;11.904;2022-09-14T15:17:31;7.30;;;2.90;;
59571;SDS011;59406;45.602;11.904;2022-09-14T15:19:56;5.82;;;2.63;;
59571;SDS011;59406;45.602;11.904;2022-09-14T15:22:22;6.10;;;3.42;;
59571;SDS011;59406;45.602;11.904;2022-09-14T15:24:49;6.83;;;3.10;;
59571;SDS011;59406;45.602;11.904;2022-09-14T15:27:14;5.57;;;2.90;;
59571;SDS011;59406;45.602;11.904;2022-09-14T15:29:40;7.73;;;3.20;;
59571;SDS011;59406;45.602;11.904;2022-09-14T15:32:06;6.60;;;2.70;;
59571;SDS011;59406;45.602;11.904;2022-09-14T15:34:32;13.75;;;3.40;;
59571;SDS011;59406;45.602;11.904;2022-09-14T15:36:58;9.37;;;2.93;;
59571;SDS011;59406;45.602;11.904;2022-09-14T15:39:24;5.93;;;2.53;;
59571;SDS011;59406;45.602;11.904;2022-09-14T15:41:52;7.70;;;3.20;;
59571;SDS011;59406;45.602;11.904;2022-09-14T15:46:46;7.97;;;2.85;;
59571;SDS011;59406;45.602;11.904;2022-09-14T15:49:19;8.32;;;3.17;;
59571;SDS011;59406;45.602;11.904;2022-09-14T15:51:47;11.02;;;3.42;;
59571;SDS011;59406;45.602;11.904;2022-09-14T15:54:15;9.13;;;3.50;;
59571;SDS011;59406;45.602;11.904;2022-09-14T15:56:43;9.75;;;4.60;;
59571;SDS011;59406;45.602;11.904;2022-09-14T15:59:18;8.85;;;4.40;;
59571;SDS011;59406;45.602;11.904;2022-09-14T16:01:45;6.63;;;3.83;;
59571;SDS011;59406;45.602;11.904;2022-09-14T16:04:11;10.48;;;3.95;;
59571;SDS011;59406;45.602;11.904;2022-09-14T16:06:37;10.33;;;3.70;;
59571;SDS011;59406;45.602;11.904;2022-09-14T16:09:04;7.30;;;3.58;;
59571;SDS011;59406;45.602;11.904;2022-09-14T16:11:33;10.70;;;4.20;;
59571;SDS011;59406;45.602;11.904;2022-09-14T16:14:00;9.18;;;4.22;;
59571;SDS011;59406;45.602;11.904;2022-09-14T16:16:29;9.13;;;3.83;;
59571;SDS011;59406;45.602;11.904;2022-09-14T16:18:56;8.70;;;4.73;;
59571;SDS011;59406;45.602;11.904;2022-09-14T16:21:23;8.73;;;4.30;;
59571;SDS011;59406;45.602;11.904;2022-09-14T16:23:55;8.25;;;4.20;;
59571;SDS011;59406;45.602;11.904;2022-09-14T16:26:30;9.73;;;4.65;;
59571;SDS011;59406;45.602;11.904;2022-09-14T16:28:58;7.15;;;4.07;;
59571;SDS011;59406;45.602;11.904;2022-09-14T16:33:54;18.23;;;12.48;;
59571;SDS011;59406;45.602;11.904;2022-09-14T16:36:24;15.65;;;10.43;;
59571;SDS011;59406;45.602;11.904;2022-09-14T16:38:56;14.57;;;7.78;;
59571;SDS011;59406;45.602;11.904;2022-09-14T16:41:24;24.10;;;12.45;;
59571;SDS011;59406;45.602;11.904;2022-09-14T16:43:55;16.63;;;10.50;;
59571;SDS011;59406;45.602;11.904;2022-09-14T16:46:23;20.17;;;11.88;;
59571;SDS011;59406;45.602;11.904;2022-09-14T16:48:50;11.38;;;6.55;;
59571;SDS011;59406;45.602;11.904;2022-09-14T16:51:20;13.45;;;6.60;;
59571;SDS011;59406;45.602;11.904;2022-09-14T16:53:48;11.35;;;7.63;;
59571;SDS011;59406;45.602;11.904;2022-09-14T16:56:17;18.70;;;7.80;;
59571;SDS011;59406;45.602;11.904;2022-09-14T16:58:44;13.45;;;6.22;;
59571;SDS011;59406;45.602;11.904;2022-09-14T17:04:00;11.50;;;6.03;;
59571;SDS011;59406;45.602;11.904;2022-09-14T17:06:30;13.35;;;6.43;;
59571;SDS011;59406;45.602;11.904;2022-09-14T17:08:58;9.37;;;5.00;;
59571;SDS011;59406;45.602;11.904;2022-09-14T17:11:27;13.95;;;5.40;;
59571;SDS011;59406;45.602;11.904;2022-09-14T17:13:54;8.40;;;4.88;;
59571;SDS011;59406;45.602;11.904;2022-09-14T17:16:21;11.70;;;5.40;;
59571;SDS011;59406;45.602;11.904;2022-09-14T17:18:48;7.88;;;5.13;;
59571;SDS011;59406;45.602;11.904;2022-09-14T17:21:17;9.23;;;5.40;;
59571;SDS011;59406;45.602;11.904;2022-09-14T17:23:45;10.90;;;5.63;;
59571;SDS011;59406;45.602;11.904;2022-09-14T17:26:13;8.00;;;4.85;;
59571;SDS011;59406;45.602;11.904;2022-09-14T17:28:41;8.52;;;5.80;;